sensor_id;sensor_type;location;lat;lon;timestamp;pressure;altitude;pressure_sealevel;temperature;humidity
64053;BME280;50299;49.524;8.536;2023-02-22T00:00:44;100433.66;;;0.97;86.98
64053;BME280;50299;49.524;8.536;2023-02-22T00:03:16;100434.84;;;1.22;91.58
64053;BME280;50299;49.524;8.536;2023-02-22T00:05:45;100438.34;;;2.06;100.00
64053;BME280;50299;49.524;8.536;2023-02-22T00:08:13;100441.53;;;2.74;100.00
64053;BME280;50299;49.524;8.536;2023-02-22T00:10:40;100441.63;;;3.24;100.00
64053;BME280;50299;49.524;8.536;2023-02-22T00:13:09;100442.06;;;2.81;93.89
64053;BME280;50299;49.524;8.536;2023-02-22T00:15:36;100442.13;;;2.45;91.66
64053;BME280;50299;49.524;8.536;2023-02-22T00:18:03;100435.03;;;2.24;91.13
64053;BME280;50299;49.524;8.536;2023-02-22T00:20:29;100437.50;;;2.10;89.92
64053;BME280;50299;49.524;8.536;2023-02-22T00:22:55;100435.00;;;1.68;79.80
64053;BME280;50299;49.524;8.536;2023-02-22T00:25:23;100426.25;;;1.56;87.06
64053;BME280;50299;49.524;8.536;2023-02-22T00:27:50;100428.28;;;1.13;82.97
64053;BME280;50299;49.524;8.536;2023-02-22T00:30:21;100427.38;;;0.97;81.89
64053;BME280;50299;49.524;8.536;2023-02-22T00:32:49;100425.75;;;0.91;85.38
64053;BME280;50299;49.524;8.536;2023-02-22T00:35:19;100431.00;;;1.13;92.05
64053;BME280;50299;49.524;8.536;2023-02-22T00:37:50;100438.78;;;1.47;93.16
64053;BME280;50299;49.524;8.536;2023-02-22T00:40:20;100427.97;;;2.03;99.28
64053;BME280;50299;49.524;8.536;2023-02-22T00:42:46;100432.84;;;1.65;81.31
64053;BME280;50299;49.524;8.536;2023-02-22T00:45:19;100420.88;;;0.08;78.77
64053;BME280;50299;49.524;8.536;2023-02-22T00:47:46;100422.50;;;-0.23;78.10
64053;BME280;50299;49.524;8.536;2023-02-22T00:50:13;100416.16;;;-0.01;87.07
64053;BME280;50299;49.524;8.536;2023-02-22T00:52:41;100416.44;;;0.34;89.79
64053;BME280;50299;49.524;8.536;2023-02-22T00:55:10;100426.19;;;-0.61;77.88
64053;BME280;50299;49.524;8.536;2023-02-22T00:57:38;100418.72;;;-1.54;82.46
64053;BME280;50299;49.524;8.536;2023-02-22T01:00:09;100401.72;;;-0.88;91.45
64053;BME280;50299;49.524;8.536;2023-02-22T01:02:41;100405.56;;;-0.30;92.85
64053;BME280;50299;49.524;8.536;2023-02-22T01:05:10;100402.53;;;-0.34;90.09
64053;BME280;50299;49.524;8.536;2023-02-22T01:07:41;100400.13;;;0.34;97.63
64053;BME280;50299;49.524;8.536;2023-02-22T01:10:09;100407.00;;;0.10;86.51
64053;BME280;50299;49.524;8.536;2023-02-22T01:12:36;100406.25;;;-0.45;80.02
64053;BME280;50299;49.524;8.536;2023-02-22T01:15:05;100411.53;;;-0.60;80.60
64053;BME280;50299;49.524;8.536;2023-02-22T01:17:36;100404.50;;;-0.56;81.33
64053;BME280;50299;49.524;8.536;2023-02-22T01:20:05;100399.50;;;-0.69;80.80
64053;BME280;50299;49.524;8.536;2023-02-22T01:22:39;100397.53;;;-1.18;80.59
64053;BME280;50299;49.524;8.536;2023-02-22T01:25:06;100401.59;;;-0.98;84.68
64053;BME280;50299;49.524;8.536;2023-02-22T01:27:36;100389.22;;;-0.89;87.45
64053;BME280;50299;49.524;8.536;2023-02-22T01:30:05;100390.22;;;-0.73;87.21
64053;BME280;50299;49.524;8.536;2023-02-22T01:32:38;100389.88;;;-1.21;79.74
64053;BME280;50299;49.524;8.536;2023-02-22T01:35:07;100383.22;;;-1.91;81.42
64053;BME280;50299;49.524;8.536;2023-02-22T01:37:36;100389.69;;;-1.36;88.95
64053;BME280;50299;49.524;8.536;2023-02-22T01:40:04;100390.47;;;-0.97;89.30
64053;BME280;50299;49.524;8.536;2023-02-22T01:42:32;100391.13;;;-0.63;90.00
64053;BME280;50299;49.524;8.536;2023-02-22T01:45:36;100377.78;;;-0.05;96.92
64053;BME280;50299;49.524;8.536;2023-02-22T01:48:08;100377.44;;;0.18;92.59
64053;BME280;50299;49.524;8.536;2023-02-22T01:50:39;100387.16;;;0.09;87.85
64053;BME280;50299;49.524;8.536;2023-02-22T01:53:08;100380.41;;;0.12;88.77
64053;BME280;50299;49.524;8.536;2023-02-22T01:55:37;100373.94;;;0.70;97.47
64053;BME280;50299;49.524;8.536;2023-02-22T01:58:04;100381.19;;;0.55;86.48
64053;BME280;50299;49.524;8.536;2023-02-22T02:00:32;100375.47;;;-0.23;76.40
64053;BME280;50299;49.524;8.536;2023-02-22T02:03:02;100370.66;;;-0.48;81.25
64053;BME280;50299;49.524;8.536;2023-02-22T02:05:32;100369.94;;;-0.34;83.34
64053;BME280;50299;49.524;8.536;2023-02-22T02:08:10;100374.53;;;-0.39;80.55
64053;BME280;50299;49.524;8.536;2023-02-22T02:10:40;100362.47;;;-0.54;82.95
64053;BME280;50299;49.524;8.536;2023-02-22T02:13:07;100363.84;;;-0.46;82.54
64053;BME280;50299;49.524;8.536;2023-02-22T02:15:36;100362.97;;;0.55;100.00
64053;BME280;50299;49.524;8.536;2023-02-22T02:18:05;100358.63;;;1.32;100.00
64053;BME280;50299;49.524;8.536;2023-02-22T02:21:07;100360.63;;;1.73;100.00
64053;BME280;50299;49.524;8.536;2023-02-22T02:26:44;100360.59;;;1.67;97.85
64053;BME280;50299;49.524;8.536;2023-02-22T02:29:43;100343.13;;;1.43;94.67
64053;BME280;50299;49.524;8.536;2023-02-22T02:32:44;100349.09;;;1.30;89.01
64053;BME280;50299;49.524;8.536;2023-02-22T02:38:53;100347.19;;;2.37;100.00
64053;BME280;50299;49.524;8.536;2023-02-22T02:41:27;100346.16;;;1.57;87.05
64053;BME280;50299;49.524;8.536;2023-02-22T02:44:14;100344.97;;;1.22;86.19
64053;BME280;50299;49.524;8.536;2023-02-22T02:47:09;100346.50;;;0.82;85.52
64053;BME280;50299;49.524;8.536;2023-02-22T02:49:43;100339.19;;;0.98;91.83
64053;BME280;50299;49.524;8.536;2023-02-22T02:52:14;100344.59;;;0.78;87.27
64053;BME280;50299;49.524;8.536;2023-02-22T02:54:44;100340.78;;;0.84;88.74
64053;BME280;50299;49.524;8.536;2023-02-22T02:57:12;100337.63;;;1.12;96.56
64053;BME280;50299;49.524;8.536;2023-02-22T02:59:38;100332.00;;;1.44;97.13
64053;BME280;50299;49.524;8.536;2023-02-22T03:02:25;100333.56;;;1.15;88.90
64053;BME280;50299;49.524;8.536;2023-02-22T03:11:09;100331.50;;;0.22;85.31
64053;BME280;50299;49.524;8.536;2023-02-22T03:13:58;100317.81;;;0.49;92.82
64053;BME280;50299;49.524;8.536;2023-02-22T03:16:47;100325.31;;;0.32;87.15
64053;BME280;50299;49.524;8.536;2023-02-22T03:22:09;100322.41;;;0.49;92.79
64053;BME280;50299;49.524;8.536;2023-02-22T03:25:00;100320.47;;;0.39;86.69
64053;BME280;50299;49.524;8.536;2023-02-22T03:27:34;100319.50;;;0.13;84.94
64053;BME280;50299;49.524;8.536;2023-02-22T03:30:14;100314.78;;;-0.02;88.91
64053;BME280;50299;49.524;8.536;2023-02-22T03:32:46;100315.13;;;-0.90;79.99
64053;BME280;50299;49.524;8.536;2023-02-22T03:35:19;100310.00;;;-0.86;87.01
64053;BME280;50299;49.524;8.536;2023-02-22T03:37:53;100315.44;;;-0.86;86.85
64053;BME280;50299;49.524;8.536;2023-02-22T03:40:32;100316.59;;;-1.87;79.31
64053;BME280;50299;49.524;8.536;2023-02-22T03:43:06;100318.56;;;-1.82;85.59
64053;BME280;50299;49.524;8.536;2023-02-22T03:45:36;100322.41;;;-2.17;82.52
64053;BME280;50299;49.524;8.536;2023-02-22T03:51:03;100310.88;;;-1.90;90.10
64053;BME280;50299;49.524;8.536;2023-02-22T03:53:31;100314.72;;;-0.76;100.00
64053;BME280;50299;49.524;8.536;2023-02-22T03:55:59;100311.34;;;-0.62;95.93
64053;BME280;50299;49.524;8.536;2023-02-22T03:58:30;100310.38;;;-0.45;98.66
64053;BME280;50299;49.524;8.536;2023-02-22T04:00:59;100318.91;;;-0.64;91.98
64053;BME280;50299;49.524;8.536;2023-02-22T04:03:25;100316.41;;;-0.97;84.77
64053;BME280;50299;49.524;8.536;2023-02-22T04:05:52;100317.72;;;-1.22;82.58
64053;BME280;50299;49.524;8.536;2023-02-22T04:08:18;100319.00;;;-1.90;79.27
64053;BME280;50299;49.524;8.536;2023-02-22T04:10:44;100313.84;;;-1.92;86.02
64053;BME280;50299;49.524;8.536;2023-02-22T04:13:11;100308.41;;;-1.92;87.54
64053;BME280;50299;49.524;8.536;2023-02-22T04:15:39;100304.56;;;-1.96;86.53
64053;BME280;50299;49.524;8.536;2023-02-22T04:18:06;100305.28;;;-1.84;86.91
64053;BME280;50299;49.524;8.536;2023-02-22T04:20:32;100303.84;;;-1.25;96.70
64053;BME280;50299;49.524;8.536;2023-02-22T04:22:59;100300.88;;;-0.43;100.00
64053;BME280;50299;49.524;8.536;2023-02-22T04:25:26;100300.19;;;-0.28;98.04
64053;BME280;50299;49.524;8.536;2023-02-22T04:27:53;100299.50;;;0.34;100.00
64053;BME280;50299;49.524;8.536;2023-02-22T04:30:20;100304.94;;;0.39;99.62
64053;BME280;50299;49.524;8.536;2023-02-22T04:32:46;100299.97;;;0.79;100.00
64053;BME280;50299;49.524;8.536;2023-02-22T04:35:13;100301.97;;;1.34;100.00
64053;BME280;50299;49.524;8.536;2023-02-22T04:37:40;100300.66;;;1.83;100.00
64053;BME280;50299;49.524;8.536;2023-02-22T04:40:06;100304.59;;;2.47;100.00
64053;BME280;50299;49.524;8.536;2023-02-22T04:42:34;100309.41;;;2.70;100.00
64053;BME280;50299;49.524;8.536;2023-02-22T04:45:01;100309.69;;;2.68;100.00
64053;BME280;50299;49.524;8.536;2023-02-22T04:47:28;100306.88;;;2.89;100.00
64053;BME280;50299;49.524;8.536;2023-02-22T04:49:54;100303.34;;;2.83;100.00
64053;BME280;50299;49.524;8.536;2023-02-22T04:52:21;100308.88;;;2.68;100.00
64053;BME280;50299;49.524;8.536;2023-02-22T04:54:47;100317.78;;;2.09;93.29
64053;BME280;50299;49.524;8.536;2023-02-22T04:57:14;100317.75;;;1.07;79.36
64053;BME280;50299;49.524;8.536;2023-02-22T04:59:40;100318.63;;;0.50;78.86
64053;BME280;50299;49.524;8.536;2023-02-22T05:02:06;100311.84;;;0.57;91.11
64053;BME280;50299;49.524;8.536;2023-02-22T05:04:32;100315.75;;;0.82;91.79
64053;BME280;50299;49.524;8.536;2023-02-22T05:06:59;100308.13;;;0.79;91.31
64053;BME280;50299;49.524;8.536;2023-02-22T05:09:25;100302.66;;;0.74;92.58
64053;BME280;50299;49.524;8.536;2023-02-22T05:11:51;100303.72;;;0.62;92.15
64053;BME280;50299;49.524;8.536;2023-02-22T05:14:18;100308.16;;;0.26;82.38
64053;BME280;50299;49.524;8.536;2023-02-22T05:16:44;100303.56;;;-0.11;81.44
64053;BME280;50299;49.524;8.536;2023-02-22T05:19:10;100297.22;;;-0.59;78.98
64053;BME280;50299;49.524;8.536;2023-02-22T05:21:37;100292.91;;;-0.55;83.75
64053;BME280;50299;49.524;8.536;2023-02-22T05:24:05;100293.03;;;-0.39;88.32
64053;BME280;50299;49.524;8.536;2023-02-22T05:26:32;100290.06;;;-0.00;95.14
64053;BME280;50299;49.524;8.536;2023-02-22T05:28:58;100294.00;;;0.87;100.00
64053;BME280;50299;49.524;8.536;2023-02-22T05:31:24;100287.47;;;0.98;99.40
64053;BME280;50299;49.524;8.536;2023-02-22T05:33:51;100293.59;;;0.53;88.18
64053;BME280;50299;49.524;8.536;2023-02-22T05:36:17;100288.72;;;0.60;93.90
64053;BME280;50299;49.524;8.536;2023-02-22T05:38:44;100292.44;;;0.38;83.93
64053;BME280;50299;49.524;8.536;2023-02-22T05:41:11;100285.34;;;-0.15;87.68
64053;BME280;50299;49.524;8.536;2023-02-22T05:43:39;100289.72;;;0.38;97.60
64053;BME280;50299;49.524;8.536;2023-02-22T05:46:06;100289.72;;;0.38;91.57
64053;BME280;50299;49.524;8.536;2023-02-22T05:48:32;100293.03;;;0.45;90.19
64053;BME280;50299;49.524;8.536;2023-02-22T05:50:59;100287.78;;;0.29;88.34
64053;BME280;50299;49.524;8.536;2023-02-22T05:53:25;100288.00;;;0.17;90.55
64053;BME280;50299;49.524;8.536;2023-02-22T05:55:52;100287.09;;;0.64;98.33
64053;BME280;50299;49.524;8.536;2023-02-22T05:58:19;100289.34;;;0.19;80.46
64053;BME280;50299;49.524;8.536;2023-02-22T06:00:45;100288.72;;;0.02;86.31
64053;BME280;50299;49.524;8.536;2023-02-22T06:03:12;100295.38;;;-0.21;82.10
64053;BME280;50299;49.524;8.536;2023-02-22T06:05:38;100291.25;;;-0.23;86.43
64053;BME280;50299;49.524;8.536;2023-02-22T06:08:05;100291.91;;;-0.06;87.88
64053;BME280;50299;49.524;8.536;2023-02-22T06:10:32;100289.25;;;-0.38;80.36
64053;BME280;50299;49.524;8.536;2023-02-22T06:13:00;100293.47;;;-0.85;76.64
64053;BME280;50299;49.524;8.536;2023-02-22T06:15:28;100289.44;;;-0.82;84.16
64053;BME280;50299;49.524;8.536;2023-02-22T06:17:55;100293.41;;;-0.25;98.34
64053;BME280;50299;49.524;8.536;2023-02-22T06:20:24;100300.84;;;1.05;100.00
64053;BME280;50299;49.524;8.536;2023-02-22T06:22:53;100295.47;;;1.76;100.00
64053;BME280;50299;49.524;8.536;2023-02-22T06:25:22;100300.53;;;2.39;100.00
64053;BME280;50299;49.524;8.536;2023-02-22T06:27:49;100297.94;;;1.73;100.00
64053;BME280;50299;49.524;8.536;2023-02-22T06:30:18;100305.84;;;1.43;98.21
64053;BME280;50299;49.524;8.536;2023-02-22T06:32:45;100304.91;;;1.02;95.12
64053;BME280;50299;49.524;8.536;2023-02-22T06:35:13;100311.88;;;0.62;86.78
64053;BME280;50299;49.524;8.536;2023-02-22T06:37:39;100309.38;;;0.03;80.73
64053;BME280;50299;49.524;8.536;2023-02-22T06:40:06;100307.00;;;-0.25;83.54
64053;BME280;50299;49.524;8.536;2023-02-22T06:42:34;100306.38;;;-0.70;81.47
64053;BME280;50299;49.524;8.536;2023-02-22T06:45:00;100310.03;;;-1.30;80.87
64053;BME280;50299;49.524;8.536;2023-02-22T06:47:27;100314.56;;;-1.14;84.70
64053;BME280;50299;49.524;8.536;2023-02-22T06:49:54;100319.88;;;-0.75;89.26
64053;BME280;50299;49.524;8.536;2023-02-22T06:52:22;100318.59;;;-0.67;86.14
64053;BME280;50299;49.524;8.536;2023-02-22T06:54:49;100325.03;;;-0.46;89.88
64053;BME280;50299;49.524;8.536;2023-02-22T06:57:16;100328.84;;;-0.42;87.71
64053;BME280;50299;49.524;8.536;2023-02-22T06:59:43;100333.13;;;-1.28;77.27
64053;BME280;50299;49.524;8.536;2023-02-22T07:02:13;100323.78;;;-0.93;92.50
64053;BME280;50299;49.524;8.536;2023-02-22T07:04:44;100327.34;;;0.09;100.00
64053;BME280;50299;49.524;8.536;2023-02-22T07:07:10;100327.31;;;0.46;100.00
64053;BME280;50299;49.524;8.536;2023-02-22T07:09:36;100330.72;;;0.84;100.00
64053;BME280;50299;49.524;8.536;2023-02-22T07:12:03;100334.72;;;0.14;79.91
64053;BME280;50299;49.524;8.536;2023-02-22T07:14:29;100326.78;;;0.50;100.00
64053;BME280;50299;49.524;8.536;2023-02-22T07:16:56;100341.31;;;0.86;97.53
64053;BME280;50299;49.524;8.536;2023-02-22T07:19:22;100344.09;;;0.96;91.29
64053;BME280;50299;49.524;8.536;2023-02-22T07:21:50;100344.03;;;0.81;85.37
64053;BME280;50299;49.524;8.536;2023-02-22T07:24:20;100339.56;;;0.07;79.47
64053;BME280;50299;49.524;8.536;2023-02-22T07:26:46;100343.22;;;0.22;88.49
64053;BME280;50299;49.524;8.536;2023-02-22T07:29:13;100340.09;;;1.19;100.00
64053;BME280;50299;49.524;8.536;2023-02-22T07:31:39;100341.53;;;1.67;100.00
64053;BME280;50299;49.524;8.536;2023-02-22T07:34:05;100342.34;;;1.63;93.80
64053;BME280;50299;49.524;8.536;2023-02-22T07:36:32;100346.81;;;0.96;78.76
64053;BME280;50299;49.524;8.536;2023-02-22T07:38:58;100335.56;;;0.72;81.83
64053;BME280;50299;49.524;8.536;2023-02-22T07:41:25;100343.22;;;0.80;88.32
64053;BME280;50299;49.524;8.536;2023-02-22T07:43:51;100344.81;;;1.90;100.00
64053;BME280;50299;49.524;8.536;2023-02-22T07:46:18;100334.88;;;3.10;100.00
64053;BME280;50299;49.524;8.536;2023-02-22T07:48:44;100343.97;;;3.84;100.00
64053;BME280;50299;49.524;8.536;2023-02-22T07:51:14;100338.75;;;3.87;100.00
64053;BME280;50299;49.524;8.536;2023-02-22T07:53:41;100346.50;;;3.41;90.96
64053;BME280;50299;49.524;8.536;2023-02-22T07:56:07;100344.47;;;2.32;74.18
64053;BME280;50299;49.524;8.536;2023-02-22T07:58:34;100345.63;;;1.95;78.11
64053;BME280;50299;49.524;8.536;2023-02-22T08:01:00;100337.72;;;1.99;85.96
64053;BME280;50299;49.524;8.536;2023-02-22T08:03:30;100349.09;;;2.37;88.11
64053;BME280;50299;49.524;8.536;2023-02-22T08:05:59;100343.56;;;2.62;88.92
64053;BME280;50299;49.524;8.536;2023-02-22T08:08:26;100343.13;;;3.00;93.28
64053;BME280;50299;49.524;8.536;2023-02-22T08:10:53;100335.38;;;3.61;99.32
64053;BME280;50299;49.524;8.536;2023-02-22T08:13:21;100347.44;;;3.95;91.39
64053;BME280;50299;49.524;8.536;2023-02-22T08:15:50;100334.03;;;4.22;92.33
64053;BME280;50299;49.524;8.536;2023-02-22T08:18:19;100344.94;;;4.75;97.11
64053;BME280;50299;49.524;8.536;2023-02-22T08:20:47;100323.91;;;5.13;95.27
64053;BME280;50299;49.524;8.536;2023-02-22T08:23:16;100338.31;;;5.24;89.50
64053;BME280;50299;49.524;8.536;2023-02-22T08:25:43;100329.41;;;5.51;90.46
64053;BME280;50299;49.524;8.536;2023-02-22T08:28:12;100329.38;;;5.70;92.42
64053;BME280;50299;49.524;8.536;2023-02-22T08:30:40;100325.16;;;5.78;84.48
64053;BME280;50299;49.524;8.536;2023-02-22T08:33:12;100338.09;;;5.02;75.50
64053;BME280;50299;49.524;8.536;2023-02-22T08:35:45;100330.91;;;5.06;83.38
64053;BME280;50299;49.524;8.536;2023-02-22T08:38:24;100332.44;;;5.50;91.60
64053;BME280;50299;49.524;8.536;2023-02-22T08:40:51;100337.38;;;5.85;86.37
64053;BME280;50299;49.524;8.536;2023-02-22T08:43:19;100338.41;;;5.71;80.89
64053;BME280;50299;49.524;8.536;2023-02-22T08:45:46;100351.25;;;5.00;71.13
64053;BME280;50299;49.524;8.536;2023-02-22T08:48:14;100343.97;;;4.66;74.88
64053;BME280;50299;49.524;8.536;2023-02-22T08:50:41;100346.88;;;4.51;81.49
64053;BME280;50299;49.524;8.536;2023-02-22T08:53:08;100345.41;;;4.82;81.37
64053;BME280;50299;49.524;8.536;2023-02-22T08:55:37;100347.09;;;4.54;75.11
64053;BME280;50299;49.524;8.536;2023-02-22T08:58:05;100351.53;;;4.74;80.51
64053;BME280;50299;49.524;8.536;2023-02-22T09:00:35;100348.84;;;4.93;76.43
64053;BME280;50299;49.524;8.536;2023-02-22T09:03:06;100340.34;;;4.71;77.94
64053;BME280;50299;49.524;8.536;2023-02-22T09:05:32;100340.72;;;4.40;73.41
64053;BME280;50299;49.524;8.536;2023-02-22T09:07:59;100339.03;;;4.44;76.55
64053;BME280;50299;49.524;8.536;2023-02-22T09:10:29;100344.88;;;5.04;76.99
64053;BME280;50299;49.524;8.536;2023-02-22T09:12:56;100338.00;;;5.45;73.96
64053;BME280;50299;49.524;8.536;2023-02-22T09:15:23;100338.59;;;5.93;74.32
64053;BME280;50299;49.524;8.536;2023-02-22T09:17:50;100337.28;;;6.23;77.94
64053;BME280;50299;49.524;8.536;2023-02-22T09:20:19;100330.09;;;6.69;76.28
64053;BME280;50299;49.524;8.536;2023-02-22T09:22:46;100341.63;;;7.07;69.24
64053;BME280;50299;49.524;8.536;2023-02-22T09:25:14;100336.88;;;7.12;61.72
64053;BME280;50299;49.524;8.536;2023-02-22T09:27:42;100334.13;;;7.12;66.29
64053;BME280;50299;49.524;8.536;2023-02-22T09:30:21;100333.13;;;7.45;69.72
64053;BME280;50299;49.524;8.536;2023-02-22T09:32:51;100325.66;;;7.59;69.57
64053;BME280;50299;49.524;8.536;2023-02-22T09:35:19;100317.31;;;7.95;67.89
64053;BME280;50299;49.524;8.536;2023-02-22T09:37:45;100311.72;;;8.09;66.86
64053;BME280;50299;49.524;8.536;2023-02-22T09:40:16;100311.00;;;7.72;60.80
64053;BME280;50299;49.524;8.536;2023-02-22T09:42:58;100315.78;;;7.58;64.34
64053;BME280;50299;49.524;8.536;2023-02-22T09:45:33;100308.91;;;7.69;65.80
64053;BME280;50299;49.524;8.536;2023-02-22T09:48:06;100303.75;;;7.76;61.81
64053;BME280;50299;49.524;8.536;2023-02-22T09:50:48;100312.28;;;7.30;62.37
64053;BME280;50299;49.524;8.536;2023-02-22T09:55:59;100300.75;;;7.64;57.51
64053;BME280;50299;49.524;8.536;2023-02-22T10:01:22;100303.22;;;7.97;61.49
64053;BME280;50299;49.524;8.536;2023-02-22T10:06:30;100290.38;;;8.63;62.10
64053;BME280;50299;49.524;8.536;2023-02-22T10:09:00;100288.19;;;8.65;55.90
64053;BME280;50299;49.524;8.536;2023-02-22T10:15:00;100287.28;;;9.13;65.95
64053;BME280;50299;49.524;8.536;2023-02-22T10:17:39;100289.09;;;9.26;59.53
64053;BME280;50299;49.524;8.536;2023-02-22T10:20:18;100289.41;;;9.51;59.34
64053;BME280;50299;49.524;8.536;2023-02-22T10:23:16;100285.47;;;9.78;54.69
64053;BME280;50299;49.524;8.536;2023-02-22T10:25:53;100282.69;;;9.86;63.11
64053;BME280;50299;49.524;8.536;2023-02-22T10:28:25;100281.75;;;9.56;55.28
64053;BME280;50299;49.524;8.536;2023-02-22T10:30:57;100280.94;;;9.73;56.36
64053;BME280;50299;49.524;8.536;2023-02-22T10:33:39;100282.88;;;9.81;55.91
64053;BME280;50299;49.524;8.536;2023-02-22T10:36:17;100280.31;;;9.76;54.03
64053;BME280;50299;49.524;8.536;2023-02-22T10:38:52;100280.31;;;9.76;54.64
64053;BME280;50299;49.524;8.536;2023-02-22T10:41:31;100277.16;;;10.04;48.91
64053;BME280;50299;49.524;8.536;2023-02-22T10:43:59;100279.00;;;9.74;50.99
64053;BME280;50299;49.524;8.536;2023-02-22T10:46:27;100266.50;;;9.76;50.52
64053;BME280;50299;49.524;8.536;2023-02-22T10:48:59;100271.78;;;9.99;54.70
64053;BME280;50299;49.524;8.536;2023-02-22T10:51:28;100279.69;;;10.18;56.20
64053;BME280;50299;49.524;8.536;2023-02-22T10:56:46;100277.38;;;10.67;57.67
64053;BME280;50299;49.524;8.536;2023-02-22T10:59:32;100269.63;;;10.51;52.90
64053;BME280;50299;49.524;8.536;2023-02-22T11:02:00;100270.34;;;10.69;46.01
64053;BME280;50299;49.524;8.536;2023-02-22T11:04:46;100268.03;;;10.80;50.00
64053;BME280;50299;49.524;8.536;2023-02-22T11:07:34;100268.19;;;10.83;49.85
64053;BME280;50299;49.524;8.536;2023-02-22T11:10:06;100266.00;;;10.59;51.00
64053;BME280;50299;49.524;8.536;2023-02-22T11:12:36;100265.94;;;10.98;58.58
64053;BME280;50299;49.524;8.536;2023-02-22T11:17:44;100257.13;;;11.25;46.98
64053;BME280;50299;49.524;8.536;2023-02-22T11:20:27;100258.16;;;11.21;54.13
64053;BME280;50299;49.524;8.536;2023-02-22T11:22:56;100256.09;;;11.30;47.19
64053;BME280;50299;49.524;8.536;2023-02-22T11:25:26;100256.50;;;11.41;46.02
64053;BME280;50299;49.524;8.536;2023-02-22T11:27:53;100254.75;;;11.36;51.11
64053;BME280;50299;49.524;8.536;2023-02-22T11:30:31;100246.97;;;11.83;50.15
64053;BME280;50299;49.524;8.536;2023-02-22T11:33:02;100250.97;;;12.19;48.09
64053;BME280;50299;49.524;8.536;2023-02-22T11:35:39;100242.66;;;12.31;49.80
64053;BME280;50299;49.524;8.536;2023-02-22T11:43:31;100233.19;;;12.32;47.88
64053;BME280;50299;49.524;8.536;2023-02-22T11:46:04;100223.50;;;12.39;44.83
64053;BME280;50299;49.524;8.536;2023-02-22T11:48:33;100215.63;;;12.28;42.04
64053;BME280;50299;49.524;8.536;2023-02-22T11:51:23;100219.44;;;12.48;42.88
64053;BME280;50299;49.524;8.536;2023-02-22T11:56:38;100213.28;;;12.92;43.82
64053;BME280;50299;49.524;8.536;2023-02-22T11:59:18;100200.31;;;13.08;41.11
64053;BME280;50299;49.524;8.536;2023-02-22T12:02:17;100206.22;;;12.94;39.66
64053;BME280;50299;49.524;8.536;2023-02-22T12:05:11;100201.41;;;12.67;40.79
64053;BME280;50299;49.524;8.536;2023-02-22T12:10:39;100196.34;;;13.09;44.23
64053;BME280;50299;49.524;8.536;2023-02-22T12:15:48;100193.47;;;13.05;46.38
64053;BME280;50299;49.524;8.536;2023-02-22T12:18:25;100196.13;;;13.02;38.70
64053;BME280;50299;49.524;8.536;2023-02-22T12:20:59;100182.13;;;12.58;38.78
64053;BME280;50299;49.524;8.536;2023-02-22T12:23:49;100178.81;;;12.28;40.01
64053;BME280;50299;49.524;8.536;2023-02-22T12:26:28;100180.88;;;12.68;43.84
64053;BME280;50299;49.524;8.536;2023-02-22T12:29:01;100187.16;;;12.93;39.37
64053;BME280;50299;49.524;8.536;2023-02-22T12:31:51;100176.19;;;12.96;39.45
64053;BME280;50299;49.524;8.536;2023-02-22T12:36:57;100177.44;;;12.09;41.39
64053;BME280;50299;49.524;8.536;2023-02-22T12:42:48;100170.84;;;12.39;46.37
64053;BME280;50299;49.524;8.536;2023-02-22T12:45:33;100164.22;;;12.55;40.35
64053;BME280;50299;49.524;8.536;2023-02-22T12:50:55;100166.63;;;12.81;40.54
64053;BME280;50299;49.524;8.536;2023-02-22T12:53:30;100158.78;;;12.59;41.54
64053;BME280;50299;49.524;8.536;2023-02-22T13:01:37;100158.72;;;13.40;41.85
64053;BME280;50299;49.524;8.536;2023-02-22T13:04:06;100152.56;;;13.46;42.42
64053;BME280;50299;49.524;8.536;2023-02-22T13:06:57;100151.09;;;12.93;41.20
64053;BME280;50299;49.524;8.536;2023-02-22T13:14:59;100145.34;;;13.73;41.16
64053;BME280;50299;49.524;8.536;2023-02-22T13:20:29;100143.66;;;13.69;40.86
64053;BME280;50299;49.524;8.536;2023-02-22T13:25:56;100146.19;;;13.58;42.67
64053;BME280;50299;49.524;8.536;2023-02-22T13:28:49;100150.00;;;13.69;43.29
64053;BME280;50299;49.524;8.536;2023-02-22T13:31:43;100142.31;;;13.63;43.49
64053;BME280;50299;49.524;8.536;2023-02-22T13:34:36;100137.53;;;13.47;41.13
64053;BME280;50299;49.524;8.536;2023-02-22T13:37:27;100137.41;;;13.88;42.13
64053;BME280;50299;49.524;8.536;2023-02-22T13:40:17;100135.88;;;13.74;41.11
64053;BME280;50299;49.524;8.536;2023-02-22T13:43:02;100130.75;;;13.61;43.48
64053;BME280;50299;49.524;8.536;2023-02-22T13:53:37;100129.53;;;13.74;43.62
64053;BME280;50299;49.524;8.536;2023-02-22T13:56:08;100123.09;;;13.42;39.69
64053;BME280;50299;49.524;8.536;2023-02-22T13:58:47;100125.22;;;13.32;44.43
64053;BME280;50299;49.524;8.536;2023-02-22T14:06:54;100125.59;;;14.26;42.67
64053;BME280;50299;49.524;8.536;2023-02-22T14:09:53;100128.19;;;14.70;41.26
64053;BME280;50299;49.524;8.536;2023-02-22T14:18:04;100118.44;;;14.60;41.48
64053;BME280;50299;49.524;8.536;2023-02-22T14:20:37;100119.13;;;14.73;38.58
64053;BME280;50299;49.524;8.536;2023-02-22T14:23:37;100117.53;;;14.21;37.03
64053;BME280;50299;49.524;8.536;2023-02-22T14:26:28;100117.84;;;14.00;41.99
64053;BME280;50299;49.524;8.536;2023-02-22T14:34:11;100109.22;;;14.75;41.46
64053;BME280;50299;49.524;8.536;2023-02-22T14:36:57;100112.63;;;14.14;37.28
64053;BME280;50299;49.524;8.536;2023-02-22T14:39:34;100110.50;;;14.08;38.62
64053;BME280;50299;49.524;8.536;2023-02-22T14:45:02;100111.22;;;14.04;38.08
64053;BME280;50299;49.524;8.536;2023-02-22T14:47:52;100114.59;;;14.14;38.34
64053;BME280;50299;49.524;8.536;2023-02-22T14:53:06;100109.25;;;13.73;42.66
64053;BME280;50299;49.524;8.536;2023-02-22T14:55:42;100112.59;;;14.30;43.96
64053;BME280;50299;49.524;8.536;2023-02-22T14:58:14;100102.41;;;14.53;38.41
64053;BME280;50299;49.524;8.536;2023-02-22T15:00:46;100095.91;;;14.65;39.33
64053;BME280;50299;49.524;8.536;2023-02-22T15:03:33;100100.94;;;14.60;40.28